Menu

In Person Flight Instructor Refresher Courses

Air Safety Institute Logo

Welcome

Flight Instructor Refresher Course

The AOPA Air Safety Institute In-Person Flight Instructor Refresher Course gives you the opportunity to renew your flight instructor certificate together with other flight instructors in your area. The two day course is led by expert presenters who are knowledgeable and engaging. Not only will you refresh your knowledge and pick up some new information, but you will also be able to network with other local professional pilots.

Location Start Time End Time State Latitude Longitude cssIndex Topic cssIndex
Santa Clara, CA 10-06-2018 7:30 AM 10-07-2018 5:00 PM Learn More California 37.382500000000000 -121.979300000000000 1 mtgFlightInstructorRefresherCourse FIRC_CA_181006
Indianapolis, IN 10-13-2018 7:30 AM 10-14-2018 5:00 PM Learn More Indiana 39.729669000000000 -86.269647000000000 1 mtgFlightInstructorRefresherCourse FIRC_IN_181013
Dulles, VA 10-13-2018 7:30 AM 10-14-2018 5:00 PM Learn More Virginia 38.985093000000000 -77.429156000000000 1 mtgFlightInstructorRefresherCourse FIRC_VA_181013
Windsor Locks, CT 10-20-2018 7:30 AM 10-21-2018 5:00 PM Learn More Connecticut 41.917587000000000 -72.673259000000000 1 mtgFlightInstructorRefresherCourse FIRC_CT_181020
Columbia, SC 10-20-2018 7:30 AM 10-21-2018 5:00 PM Learn More South Carolina 34.014993000000000 -81.076972000000000 1 mtgFlightInstructorRefresherCourse FIRC_SC_181020
Atlanta, GA 11-10-2018 7:30 AM 11-11-2018 5:00 PM Learn More Georgia 33.659125000000000 -84.437489000000000 1 mtgFlightInstructorRefresherCourse FIRC_GA_181110
San Diego, CA 11-10-2018 7:30 AM 11-11-2018 5:00 PM Learn More California 32.725703000000000 -117.223193000000000 1 mtgFlightInstructorRefresherCourse FIRC_CA_181110
Austin, TX 11-17-2018 7:30 AM 11-18-2018 5:00 PM Learn More Texas 30.214456000000000 -97.749781000000000 1 mtgFlightInstructorRefresherCourse FIRC_TX_181117
Anchorage, AK 11-17-2018 7:30 AM 11-18-2018 5:00 PM Learn More Alaska 61.177230000000000 -149.941799000000000 1 mtgFlightInstructorRefresherCourse FIRC_AK_181117
Denver, CO 12-01-2018 7:30 AM 12-02-2018 5:00 PM Learn More Colorado 39.773051000000000 -104.809523000000000 1 mtgFlightInstructorRefresherCourse FIRC_CO_181201
Orlando, FL 12-01-2018 7:30 AM 12-02-2018 5:00 PM Learn More Florida 28.463234000000000 -81.311465000000000 1 mtgFlightInstructorRefresherCourse FIRC_FL_181201
Bellevue, WA 01-05-2019 7:30 AM 01-06-2019 5:00 PM Learn More Washington 47.606941000000000 -122.190566000000000 1 mtgFlightInstructorRefresherCourse FIRC_WA_190105
Costa Mesa, CA 01-05-2019 7:30 AM 01-06-2019 5:00 PM Learn More California 33.685262000000000 -117.885804000000000 1 mtgFlightInstructorRefresherCourse FIRC_CA_190105
Charlotte, NC 01-12-2019 7:30 AM 01-13-2019 5:00 PM Learn More North Carolina 35.238391000000000 -80.921739000000000 1 mtgFlightInstructorRefresherCourse FIRC_NC_190112
Jackson, MS 01-12-2019 7:30 AM 01-13-2019 5:00 PM Learn More Mississippi 32.399544000000000 -90.143421000000000 1 mtgFlightInstructorRefresherCourse FIRC_MS_190112
Portland, OR 01-12-2019 7:30 AM 01-13-2019 5:00 PM Learn More Oregon 45.564603000000000 -122.576103000000000 1 mtgFlightInstructorRefresherCourse FIRC_OR_190112
San Antonio, TX 01-12-2019 7:30 AM 01-13-2019 5:00 PM Learn More Texas 29.505730000000000 -98.544923000000000 1 mtgFlightInstructorRefresherCourse FIRC_TX_190112
Alcoa, TN 01-19-2019 7:30 AM 01-20-2019 5:00 PM Learn More Tennessee 35.803000000000000 -83.995400000000000 1 mtgFlightInstructorRefresherCourse FIRC_TN_190119
Romulus, MI 01-19-2019 7:30 AM 01-20-2019 5:00 PM Learn More Michigan 42.245628000000000 -83.352261000000000 1 mtgFlightInstructorRefresherCourse FIRC_MI_190119
Santa Clara, CA 01-19-2019 7:30 AM 01-20-2019 5:00 PM Learn More California 37.382500000000000 -121.979300000000000 1 mtgFlightInstructorRefresherCourse FIRC_CA_190119
Frederick, MD Special Aviation Location 01-26-2019 7:30 AM 01-27-2019 5:00 PM Learn More Maryland 39.418320000000001 -77.336160000000007 1 mtgFlightInstructorRefresherCourse FIRC_MD_190126
Las Vegas, NV 02-09-2019 7:30 AM 02-10-2019 5:00 PM Learn More Nevada 36.115747000000000 -115.193279000000000 1 mtgFlightInstructorRefresherCourse FIRC_NV_190209
Louisville, KY 02-09-2019 7:30 AM 02-10-2019 5:00 AM Learn More Kentucky 38.192421000000000 -85.741073000000000 1 mtgFlightInstructorRefresherCourse FIRC_KY_190209
Ft Worth, TX 02-16-2019 7:30 AM 02-17-2019 5:00 PM Learn More Texas 32.824961000000000 -97.056256000000000 1 mtgFlightInstructorRefresherCourse FIRC_TX_190216
Nashua, NH 02-16-2019 7:30 AM 02-17-2019 5:00 PM Learn More New Hampshire 42.786203000000000 -71.509929000000000 1 mtgFlightInstructorRefresherCourse FIRC_NH_190216
Sacramento, CA 02-16-2019 7:30 AM 02-17-2019 5:00 PM Learn More California 38.600256000000000 -121.432078000000000 1 mtgFlightInstructorRefresherCourse FIRC_CA_190216
Fairfax, VA 02-23-2019 7:00 AM 02-23-2019 5:00 PM Learn More Virginia 38.872942000000000 -77.370502000000000 1 mtgFlightInstructorRefresherCourse FIRC_VA_190223
Oklahoma City, OK Special Aviation Location Fly to this Location 02-23-2019 7:30 AM 02-24-2019 5:00 PM Learn More Oklahoma 35.540679000000000 -97.636879000000000 1 mtgFlightInstructorRefresherCourse FIRC_OK_190223
Orlando, FL 02-23-2019 7:30 AM 02-24-2019 5:00 PM Learn More Florida 28.457284000000000 -81.307572000000000 1 mtgFlightInstructorRefresherCourse FIRC_FL_190223
Phoenix, AZ 03-02-2019 7:30 AM 03-03-2019 5:00 PM Learn More Arizona 33.425172000000000 -111.981156000000000 1 mtgFlightInstructorRefresherCourse FIRC_AZ_190302
Santa Clara, CA 03-02-2019 7:30 AM 03-03-2019 5:00 PM Learn More California 37.382500000000000 -121.979300000000000 1 mtgFlightInstructorRefresherCourse FIRC_CA_190302
King Of Prussia, PA 03-23-2019 7:30 AM 03-24-2019 5:00 PM Learn More Pennsylvania 40.089311000000000 -75.388475000000000 1 mtgFlightInstructorRefresherCourse FIRC_PA_190323
Ontario, CA 03-23-2019 7:30 AM 03-24-2019 5:00 PM Learn More California 34.065013000000000 -117.610812000000000 1 mtgFlightInstructorRefresherCourse FIRC_CA_190323

Questions? Contact us at [email protected] or 800/USA-AOPA (800/872-2672)
Monday - Friday, 8:30 am - 6:00 pm ET